Time;durP1;ratioP1;P1;durP2;ratioP2;P2;SDS_P1;SDS_P2;PMS_P1;PMS_P2;Temp;Humidity;BMP_temperature;BMP_pressure;BME280_temperature;BME280_humidity;BME280_pressure;Samples;Min_cycle;Max_cycle;Signal;HPM_P1;HPM_P2
2021/05/13 00:01:30;;;;;;;9.93;7.60;;;13.80;99.90;;;;;;4185347;28;20124;-70
2021/05/13 00:03:31;;;;;;;8.48;6.63;;;13.80;99.90;;;;;;4186451;28;20503;-70
2021/05/13 00:05:32;;;;;;;7.47;6.68;;;13.70;99.90;;;;;;4191126;28;20487;-71
2021/05/13 00:07:32;;;;;;;9.52;6.88;;;13.70;99.90;;;;;;4186700;28;20136;-70
2021/05/13 00:09:33;;;;;;;9.93;6.75;;;13.70;99.90;;;;;;4190003;28;20040;-71
2021/05/13 00:11:35;;;;;;;10.13;7.63;;;13.60;99.90;;;;;;4183055;28;20025;-71
2021/05/13 00:13:37;;;;;;;8.07;7.18;;;13.60;99.90;;;;;;4187410;28;20063;-71
2021/05/13 00:15:41;;;;;;;8.55;7.75;;;13.60;99.90;;;;;;4192739;28;20504;-70
2021/05/13 00:17:41;;;;;;;8.98;7.68;;;13.50;99.90;;;;;;4187944;28;20115;-71
2021/05/13 00:19:42;;;;;;;9.45;7.85;;;13.50;99.90;;;;;;4187806;28;20040;-70
2021/05/13 00:21:44;;;;;;;9.02;8.07;;;13.50;99.90;;;;;;4188108;28;20036;-71
2021/05/13 00:23:44;;;;;;;9.70;7.68;;;13.50;99.90;;;;;;4183676;28;20122;-71
2021/05/13 00:25:47;;;;;;;8.32;7.28;;;13.50;99.90;;;;;;4181687;28;20093;-71
2021/05/13 00:27:49;;;;;;;9.80;7.95;;;13.50;99.90;;;;;;4192135;28;20166;-71
2021/05/13 00:29:50;;;;;;;10.65;7.78;;;13.50;99.90;;;;;;4190378;28;20033;-71
2021/05/13 00:31:50;;;;;;;10.13;8.18;;;13.40;99.90;;;;;;4192316;28;20086;-71
2021/05/13 00:33:51;;;;;;;10.57;8.50;;;13.40;99.90;;;;;;4192192;28;20039;-71
2021/05/13 00:35:51;;;;;;;10.75;8.90;;;13.40;99.90;;;;;;4192177;28;20040;-70
2021/05/13 00:37:52;;;;;;;10.48;8.70;;;13.40;99.90;;;;;;4193027;28;20051;-71
2021/05/13 00:39:52;;;;;;;9.60;8.60;;;13.40;99.90;;;;;;4190901;28;20097;-70
2021/05/13 00:41:53;;;;;;;11.20;8.50;;;13.40;99.90;;;;;;4186681;28;20035;-70
2021/05/13 00:43:54;;;;;;;12.40;8.20;;;13.30;99.90;;;;;;4182836;28;20076;-71
2021/05/13 00:45:54;;;;;;;8.93;7.75;;;13.30;99.90;;;;;;4179804;28;20997;-70
2021/05/13 00:49:56;;;;;;;8.77;7.75;;;13.20;99.90;;;;;;4188935;28;20036;-70
2021/05/13 00:51:56;;;;;;;9.68;7.25;;;13.20;99.90;;;;;;4186197;28;20028;-70
2021/05/13 00:53:57;;;;;;;8.50;7.60;;;13.20;99.90;;;;;;4187276;28;20032;-70
2021/05/13 00:55:58;;;;;;;10.80;8.23;;;13.20;99.90;;;;;;4186346;28;20627;-70
2021/05/13 00:57:59;;;;;;;10.40;8.00;;;13.10;99.90;;;;;;4182551;28;20033;-70
2021/05/13 01:00:07;;;;;;;8.20;7.30;;;13.10;99.90;;;;;;4185517;28;20029;-70
2021/05/13 01:02:07;;;;;;;6.15;5.55;;;13.10;99.90;;;;;;4190011;28;20028;-70
2021/05/13 01:04:08;;;;;;;4.97;4.47;;;13.10;99.90;;;;;;4188935;28;20698;-71
2021/05/13 01:06:11;;;;;;;5.18;4.75;;;13.00;99.90;;;;;;4185740;28;20041;-71
2021/05/13 01:08:11;;;;;;;6.50;5.57;;;13.00;99.90;;;;;;4192044;28;20533;-70
2021/05/13 01:10:13;;;;;;;8.00;6.60;;;13.00;99.90;;;;;;4189977;28;20116;-71
2021/05/13 01:12:17;;;;;;;6.55;5.78;;;13.00;99.90;;;;;;4190826;28;20028;-71
2021/05/13 01:14:22;;;;;;;6.72;5.43;;;13.00;99.90;;;;;;4189200;28;20048;-71
2021/05/13 01:16:28;;;;;;;6.35;5.32;;;12.90;99.90;;;;;;4184869;28;20120;-70
2021/05/13 01:18:28;;;;;;;5.75;5.07;;;12.90;99.90;;;;;;4191751;28;20040;-70
2021/05/13 01:20:30;;;;;;;10.60;7.78;;;12.90;99.90;;;;;;4189226;28;20068;-70
2021/05/13 01:22:30;;;;;;;9.85;8.48;;;12.80;99.90;;;;;;4183690;28;20043;-70
2021/05/13 01:24:32;;;;;;;9.90;8.55;;;12.80;99.90;;;;;;4185729;28;20056;-71
2021/05/13 01:26:32;;;;;;;12.48;8.73;;;12.70;99.90;;;;;;4190530;28;20032;-71
2021/05/13 01:28:33;;;;;;;9.75;8.70;;;12.70;99.90;;;;;;4191882;28;20029;-71
2021/05/13 01:30:33;;;;;;;11.93;9.50;;;12.70;99.90;;;;;;4190946;28;20060;-71
2021/05/13 01:32:34;;;;;;;10.43;8.98;;;12.70;99.90;;;;;;4177989;28;20036;-71
2021/05/13 01:34:35;;;;;;;9.18;7.53;;;12.70;99.90;;;;;;4189019;28;20061;-71
2021/05/13 01:36:35;;;;;;;9.40;7.30;;;12.60;99.90;;;;;;4192013;28;20028;-70
2021/05/13 01:38:36;;;;;;;9.27;7.32;;;12.60;99.90;;;;;;4173494;28;20124;-71
2021/05/13 01:40:37;;;;;;;7.78;6.97;;;12.60;99.90;;;;;;4190569;28;20028;-71
2021/05/13 01:42:37;;;;;;;9.60;8.27;;;12.60;99.90;;;;;;4191976;28;20460;-71
2021/05/13 01:44:38;;;;;;;9.45;7.38;;;12.60;99.90;;;;;;4190695;28;20119;-71
2021/05/13 01:46:39;;;;;;;10.02;7.75;;;12.60;99.90;;;;;;4191135;28;20099;-71
2021/05/13 01:48:39;;;;;;;9.20;8.20;;;12.60;99.90;;;;;;4188495;28;20086;-71
2021/05/13 01:50:40;;;;;;;10.40;8.10;;;12.50;99.90;;;;;;4188225;28;20053;-71
2021/05/13 01:52:40;;;;;;;9.27;8.25;;;12.50;99.90;;;;;;4184678;28;20107;-70
2021/05/13 01:54:41;;;;;;;11.23;9.23;;;12.50;99.90;;;;;;4189690;28;20028;-71
2021/05/13 01:56:42;;;;;;;12.50;10.02;;;12.50;99.90;;;;;;4191038;28;20025;-70
2021/05/13 01:58:43;;;;;;;11.50;9.35;;;12.50;99.90;;;;;;4183409;28;20124;-70
2021/05/13 02:00:45;;;;;;;12.07;10.00;;;12.40;99.90;;;;;;4189802;28;20514;-71
2021/05/13 02:02:48;;;;;;;14.80;10.55;;;12.40;99.90;;;;;;4180907;28;20036;-70
2021/05/13 02:04:48;;;;;;;;;;;12.40;99.90;;;;;;4187271;28;20047;-70
2021/05/13 02:06:49;;;;;;;10.30;8.60;;;12.40;99.90;;;;;;4191162;28;19944;-71
2021/05/13 02:08:49;;;;;;;12.25;9.52;;;12.40;99.90;;;;;;4190603;28;20036;-70
2021/05/13 02:10:50;;;;;;;11.45;9.40;;;12.40;99.90;;;;;;4188876;28;20047;-70
2021/05/13 02:12:51;;;;;;;9.30;7.47;;;12.40;99.90;;;;;;4190662;28;20037;-71
2021/05/13 02:14:52;;;;;;;8.18;6.65;;;12.40;99.90;;;;;;4190844;28;20062;-71
2021/05/13 02:16:52;;;;;;;7.35;6.28;;;12.40;99.90;;;;;;4186011;28;20047;-70
2021/05/13 02:18:53;;;;;;;13.77;8.95;;;12.40;99.90;;;;;;4190797;28;20047;-71
2021/05/13 02:20:53;;;;;;;18.58;12.23;;;12.30;99.90;;;;;;4190378;28;20044;-70
2021/05/13 02:22:55;;;;;;;15.05;10.88;;;12.30;99.90;;;;;;4190732;28;20812;-71
2021/05/13 02:24:55;;;;;;;12.98;10.00;;;12.30;99.90;;;;;;4190482;28;20047;-71
2021/05/13 02:26:56;;;;;;;15.55;9.70;;;12.30;99.90;;;;;;4183336;28;20056;-71
2021/05/13 02:28:57;;;;;;;13.77;10.70;;;12.30;99.90;;;;;;4190363;28;20090;-71
2021/05/13 02:30:57;;;;;;;15.95;11.73;;;12.30;99.90;;;;;;4186385;28;20064;-70
2021/05/13 02:32:58;;;;;;;14.60;10.73;;;12.30;99.90;;;;;;4189957;28;20051;-71
2021/05/13 02:34:58;;;;;;;16.27;10.82;;;12.30;99.90;;;;;;4189908;28;20040;-71
2021/05/13 02:36:59;;;;;;;19.00;13.32;;;12.30;99.90;;;;;;4187134;28;20034;-71
2021/05/13 02:39:01;;;;;;;19.35;14.07;;;12.30;99.90;;;;;;4190684;28;20043;-71
2021/05/13 02:41:02;;;;;;;17.08;13.10;;;12.20;99.90;;;;;;4178256;28;20036;-71
2021/05/13 02:43:04;;;;;;;16.05;12.73;;;12.20;99.90;;;;;;4182621;28;20041;-71
2021/05/13 02:45:06;;;;;;;16.45;13.13;;;12.20;99.90;;;;;;4190725;28;20029;-71
2021/05/13 02:47:06;;;;;;;13.85;11.27;;;12.20;99.90;;;;;;4189825;28;20434;-71
2021/05/13 02:49:07;;;;;;;12.55;10.52;;;12.20;99.90;;;;;;4180606;28;20049;-70
2021/05/13 02:51:07;;;;;;;12.55;10.32;;;12.20;99.90;;;;;;4182473;28;20040;-71
2021/05/13 02:53:08;;;;;;;12.55;10.38;;;12.20;99.90;;;;;;4187417;28;20533;-70
2021/05/13 02:55:10;;;;;;;12.30;10.38;;;12.20;99.90;;;;;;4183708;28;20037;-71
2021/05/13 02:57:11;;;;;;;12.27;10.32;;;12.20;99.90;;;;;;4188537;28;20580;-71
2021/05/13 02:59:13;;;;;;;11.20;9.43;;;12.20;99.90;;;;;;4190866;28;20029;-70
2021/05/13 03:01:24;;;;;;;11.50;9.68;;;12.10;99.90;;;;;;4187763;28;20036;-71
2021/05/13 03:03:25;;;;;;;10.80;9.23;;;12.10;99.90;;;;;;4184226;28;20097;-71
2021/05/13 03:05:27;;;;;;;10.07;8.93;;;12.20;99.90;;;;;;4177494;28;20040;-71
2021/05/13 03:07:27;;;;;;;10.07;8.90;;;12.20;99.90;;;;;;4190169;28;20036;-71
2021/05/13 03:09:28;;;;;;;9.60;8.60;;;12.20;99.90;;;;;;4181283;28;20533;-71
2021/05/13 03:11:29;;;;;;;9.45;8.45;;;12.20;99.90;;;;;;4190350;28;20040;-71
2021/05/13 03:13:29;;;;;;;9.05;7.95;;;12.10;99.90;;;;;;4190756;28;20605;-70
2021/05/13 03:15:30;;;;;;;9.30;8.15;;;12.10;99.90;;;;;;4187149;28;20116;-70
2021/05/13 03:17:30;;;;;;;7.88;7.07;;;12.10;99.90;;;;;;4188279;28;20036;-70
2021/05/13 03:21:44;;;;;;;7.80;6.88;;;12.00;99.90;;;;;;4185322;28;20056;-70
2021/05/13 03:26:03;;;;;;;7.47;6.70;;;12.10;99.90;;;;;;4188577;28;20111;-71
2021/05/13 03:28:10;;;;;;;7.85;7.05;;;12.10;99.90;;;;;;4184487;28;20107;-71
2021/05/13 03:30:12;;;;;;;7.35;6.60;;;12.10;99.90;;;;;;4190326;28;20037;-70
2021/05/13 03:32:12;;;;;;;7.87;7.07;;;12.10;99.90;;;;;;4181004;28;20542;-71
2021/05/13 03:34:14;;;;;;;7.70;7.00;;;12.10;99.90;;;;;;4190110;28;20075;-71
2021/05/13 03:36:15;;;;;;;8.25;7.30;;;12.10;99.90;;;;;;4183410;28;20423;-70
2021/05/13 03:38:16;;;;;;;7.82;7.03;;;12.10;99.90;;;;;;4190236;28;20025;-71
2021/05/13 03:40:16;;;;;;;7.32;6.60;;;12.10;99.90;;;;;;4190407;28;20036;-71
2021/05/13 03:42:17;;;;;;;8.52;7.65;;;12.10;99.90;;;;;;4193085;28;20171;-71
2021/05/13 03:44:17;;;;;;;8.50;7.47;;;12.10;99.90;;;;;;4193100;28;20043;-71
2021/05/13 03:46:18;;;;;;;8.35;7.07;;;12.00;99.90;;;;;;4193178;28;20032;-71
2021/05/13 03:48:19;;;;;;;9.32;7.72;;;12.10;99.90;;;;;;4192751;28;20028;-71
2021/05/13 03:50:19;;;;;;;7.90;7.15;;;12.00;99.90;;;;;;4193482;28;20029;-71
2021/05/13 03:52:20;;;;;;;8.15;7.20;;;12.00;99.90;;;;;;4191638;28;20037;-71
2021/05/13 03:54:20;;;;;;;7.78;6.95;;;12.00;99.90;;;;;;4192764;28;20032;-71
2021/05/13 03:56:21;;;;;;;8.48;7.28;;;12.00;99.90;;;;;;4190662;28;20025;-70
2021/05/13 03:58:26;;;;;;;7.80;7.00;;;12.00;99.90;;;;;;4192078;28;21044;-71
2021/05/13 04:00:32;;;;;;;6.75;6.13;;;11.90;99.90;;;;;;4172850;28;20088;-71
2021/05/13 04:02:33;;;;;;;7.03;6.32;;;11.90;99.90;;;;;;4192154;28;20041;-71
2021/05/13 04:04:35;;;;;;;7.65;6.85;;;11.90;99.90;;;;;;4190070;28;20039;-70
2021/05/13 04:06:35;;;;;;;7.25;6.55;;;11.90;99.90;;;;;;4191985;28;20098;-70
2021/05/13 04:08:36;;;;;;;7.82;7.07;;;11.90;99.90;;;;;;4192216;28;20484;-70
2021/05/13 04:10:37;;;;;;;8.00;7.20;;;11.90;99.90;;;;;;4192818;28;20024;-71
2021/05/13 04:12:40;;;;;;;8.02;6.90;;;11.90;99.90;;;;;;4190886;28;20043;-71
2021/05/13 04:14:40;;;;;;;8.52;7.65;;;11.90;99.90;;;;;;4190924;28;20039;-71
2021/05/13 04:16:43;;;;;;;7.28;6.57;;;11.90;99.90;;;;;;4192097;28;20052;-71
2021/05/13 04:18:44;;;;;;;7.35;6.63;;;11.90;99.90;;;;;;4190990;28;20052;-71
2021/05/13 04:20:45;;;;;;;8.35;7.28;;;11.90;99.90;;;;;;4192591;28;20048;-70
2021/05/13 04:22:45;;;;;;;7.88;7.10;;;11.90;99.90;;;;;;4189871;28;20576;-70
2021/05/13 04:24:46;;;;;;;7.28;6.55;;;11.90;99.90;;;;;;4191438;28;20116;-71
2021/05/13 04:26:47;;;;;;;7.93;7.13;;;11.90;99.90;;;;;;4190902;28;20048;-70
2021/05/13 04:28:47;;;;;;;7.57;6.88;;;12.00;99.90;;;;;;4192095;28;20128;-71
2021/05/13 04:30:48;;;;;;;7.22;6.40;;;12.00;99.90;;;;;;4191237;28;20045;-70
2021/05/13 04:32:48;;;;;;;7.15;6.45;;;12.00;99.90;;;;;;4192548;28;20060;-71
2021/05/13 04:34:49;;;;;;;7.03;6.30;;;11.90;99.90;;;;;;4192022;28;20048;-71
2021/05/13 04:36:50;;;;;;;7.03;6.32;;;12.00;99.90;;;;;;4191221;28;20056;-71
2021/05/13 04:38:50;;;;;;;7.28;6.57;;;12.00;99.90;;;;;;4188428;28;20083;-71
2021/05/13 04:40:52;;;;;;;7.00;6.30;;;12.00;99.90;;;;;;4191090;28;20562;-71
2021/05/13 04:42:52;;;;;;;7.07;6.38;;;12.00;99.90;;;;;;4192202;28;20750;-70
2021/05/13 04:44:55;;;;;;;7.38;6.68;;;11.90;99.90;;;;;;4190635;28;20029;-71
2021/05/13 04:46:59;;;;;;;6.70;6.00;;;11.90;99.90;;;;;;4189026;28;20056;-71
2021/05/13 04:51:01;;;;;;;6.57;5.60;;;11.90;99.90;;;;;;4191480;28;20032;-71
2021/05/13 04:53:08;;;;;;;6.20;5.60;;;11.90;99.90;;;;;;4191958;28;20040;-71
2021/05/13 04:55:09;;;;;;;6.15;5.55;;;11.90;99.90;;;;;;4189217;28;20056;-71
2021/05/13 04:57:09;;;;;;;6.45;5.78;;;11.90;99.90;;;;;;4190504;28;20028;-70
2021/05/13 04:59:10;;;;;;;6.07;5.47;;;11.80;99.90;;;;;;4189066;28;20042;-70
2021/05/13 05:01:11;;;;;;;5.97;5.38;;;11.80;99.90;;;;;;4191905;28;20530;-71
2021/05/13 05:03:12;;;;;;;6.13;5.25;;;11.90;99.90;;;;;;4189268;28;20131;-70
2021/05/13 05:05:12;;;;;;;5.93;5.38;;;11.80;99.90;;;;;;4190323;28;20038;-70
2021/05/13 05:07:13;;;;;;;5.32;4.82;;;11.80;99.90;;;;;;4190394;28;20116;-70
2021/05/13 05:09:14;;;;;;;6.15;5.55;;;11.80;99.90;;;;;;4186380;28;20079;-71
2021/05/13 05:11:17;;;;;;;5.68;5.07;;;11.90;99.90;;;;;;4180247;28;20033;-70
2021/05/13 05:13:17;;;;;;;5.68;5.07;;;11.80;99.90;;;;;;4192412;28;20056;-70
2021/05/13 05:15:18;;;;;;;5.28;4.78;;;11.90;99.90;;;;;;4190961;28;20033;-71
2021/05/13 05:17:19;;;;;;;6.90;5.47;;;11.90;99.90;;;;;;4191610;28;20044;-71
2021/05/13 05:19:20;;;;;;;5.63;5.13;;;11.90;99.90;;;;;;4191419;28;20093;-70
2021/05/13 05:21:20;;;;;;;5.13;4.63;;;12.00;99.90;;;;;;4192753;28;20449;-71
2021/05/13 05:23:22;;;;;;;5.28;4.72;;;12.00;99.90;;;;;;4193837;28;20024;-71
2021/05/13 05:25:22;;;;;;;4.63;4.22;;;12.00;99.90;;;;;;4191146;28;20450;-71
2021/05/13 05:27:23;;;;;;;4.95;4.45;;;12.10;99.90;;;;;;4189887;28;21062;-70
2021/05/13 05:29:24;;;;;;;4.78;4.38;;;12.10;99.90;;;;;;4187100;28;20039;-71
2021/05/13 05:31:24;;;;;;;4.75;4.35;;;12.10;99.90;;;;;;4191933;28;20086;-71
2021/05/13 05:33:25;;;;;;;5.00;4.55;;;12.10;99.90;;;;;;4196153;28;20085;-70
2021/05/13 05:35:26;;;;;;;5.50;4.88;;;12.20;99.90;;;;;;4192476;28;20059;-71
2021/05/13 05:37:27;;;;;;;5.53;5.03;;;12.20;99.90;;;;;;4187513;28;20029;-71
2021/05/13 05:39:27;;;;;;;6.00;5.40;;;12.20;99.90;;;;;;4194585;28;20035;-70
2021/05/13 05:41:28;;;;;;;7.40;5.55;;;12.20;99.90;;;;;;4190413;28;20029;-70
2021/05/13 05:43:29;;;;;;;7.43;5.97;;;12.30;99.90;;;;;;4191645;28;20079;-70
2021/05/13 05:45:29;;;;;;;5.78;5.18;;;12.30;99.90;;;;;;4189757;28;20029;-71
2021/05/13 05:47:30;;;;;;;6.00;5.40;;;12.40;99.90;;;;;;4192532;28;20158;-71
2021/05/13 05:49:30;;;;;;;7.72;6.32;;;12.40;99.90;;;;;;4192155;28;20682;-70
2021/05/13 05:51:31;;;;;;;8.23;6.45;;;12.40;99.90;;;;;;4194711;28;20035;-70
2021/05/13 05:53:31;;;;;;;7.78;6.85;;;12.40;99.90;;;;;;4191766;28;20060;-71
2021/05/13 05:55:33;;;;;;;8.43;7.53;;;12.50;99.90;;;;;;4189725;28;20044;-71
2021/05/13 05:57:34;;;;;;;11.13;8.93;;;12.60;99.90;;;;;;4190162;28;20437;-71
2021/05/13 05:59:34;;;;;;;15.90;13.23;;;12.60;99.90;;;;;;4190843;28;20025;-71
2021/05/13 06:01:37;;;;;;;17.23;12.82;;;12.70;99.90;;;;;;4189375;28;20454;-71
2021/05/13 06:03:38;;;;;;;;;;;12.70;99.90;;;;;;4191971;28;20075;-70
2021/05/13 06:05:38;;;;;;;17.48;13.57;;;12.70;99.90;;;;;;4191183;28;20296;-71
2021/05/13 06:07:39;;;;;;;25.92;15.20;;;12.70;99.90;;;;;;4186358;28;20496;-71
2021/05/13 06:09:40;;;;;;;22.23;15.40;;;12.80;99.90;;;;;;4191075;28;20060;-71
2021/05/13 06:11:40;;;;;;;20.77;15.27;;;13.00;99.90;;;;;;4191940;28;20036;-71
2021/05/13 06:13:41;;;;;;;22.60;17.38;;;13.30;99.90;;;;;;4189338;28;20078;-71
2021/05/13 06:15:42;;;;;;;19.13;14.75;;;13.60;99.90;;;;;;4186947;28;20040;-70
2021/05/13 06:17:44;;;;;;;23.92;16.67;;;13.90;99.90;;;;;;4193747;28;20021;-71
2021/05/13 06:19:44;;;;;;;17.92;13.70;;;14.20;99.90;;;;;;4194233;28;20053;-71
2021/05/13 06:21:45;;;;;;;18.50;15.00;;;14.60;99.90;;;;;;4191204;28;20123;-71
2021/05/13 06:23:56;;;;;;;16.63;13.27;;;14.90;99.90;;;;;;4190401;28;20553;-72
2021/05/13 06:25:57;;;;;;;21.38;13.68;;;15.30;99.90;;;;;;4189474;28;20029;-71
2021/05/13 06:27:58;;;;;;;15.15;12.82;;;15.60;99.90;;;;;;4184420;28;20030;-71
2021/05/13 06:29:58;;;;;;;18.25;13.32;;;15.80;99.90;;;;;;4185909;28;20453;-71
2021/05/13 06:32:00;;;;;;;18.88;14.40;;;15.80;99.90;;;;;;4186514;28;20051;-71
2021/05/13 06:34:00;;;;;;;19.30;14.63;;;15.80;99.90;;;;;;4191757;28;20143;-71
2021/05/13 06:36:01;;;;;;;17.92;13.93;;;15.90;99.90;;;;;;4188957;28;20032;-71
2021/05/13 06:38:02;;;;;;;19.27;15.07;;;15.90;99.90;;;;;;4189724;28;20464;-71
2021/05/13 06:40:05;;;;;;;18.58;14.55;;;15.80;99.90;;;;;;4187474;28;20040;-72
2021/05/13 06:42:07;;;;;;;20.20;14.23;;;15.70;99.90;;;;;;4190481;28;20530;-72
2021/05/13 06:44:11;;;;;;;20.37;14.53;;;15.70;99.90;;;;;;4192013;28;20044;-72
2021/05/13 06:46:11;;;;;;;21.40;14.95;;;15.60;99.90;;;;;;4189704;28;20064;-72
2021/05/13 06:48:12;;;;;;;20.25;16.27;;;15.60;99.90;;;;;;4190394;28;20114;-72
2021/05/13 06:50:13;;;;;;;19.77;15.15;;;15.30;99.90;;;;;;4183025;28;20045;-72
2021/05/13 06:52:14;;;;;;;25.13;15.18;;;15.30;99.90;;;;;;4190260;28;20041;-72
2021/05/13 06:54:14;;;;;;;21.55;14.30;;;15.20;99.90;;;;;;4189527;28;20408;-72
2021/05/13 06:56:16;;;;;;;19.75;14.90;;;15.10;99.90;;;;;;4182516;28;20037;-71
2021/05/13 06:58:17;;;;;;;22.15;15.32;;;15.10;99.90;;;;;;4189799;28;20045;-72
2021/05/13 07:00:19;;;;;;;18.40;13.82;;;15.00;99.90;;;;;;4189984;28;20127;-72
2021/05/13 07:02:21;;;;;;;22.48;15.02;;;15.00;99.90;;;;;;4188777;28;20071;-72
2021/05/13 07:04:23;;;;;;;19.08;13.85;;;14.90;99.90;;;;;;4189261;28;20103;-72
2021/05/13 07:06:24;;;;;;;18.52;13.32;;;14.90;99.90;;;;;;4189217;28;20048;-72
2021/05/13 07:08:24;;;;;;;17.73;13.27;;;14.80;99.90;;;;;;4190407;28;20059;-72
2021/05/13 07:10:25;;;;;;;16.52;12.63;;;14.80;99.90;;;;;;4190681;28;20021;-72
2021/05/13 07:12:26;;;;;;;15.10;11.20;;;14.80;99.90;;;;;;4191803;28;20490;-72
2021/05/13 07:14:26;;;;;;;13.82;10.85;;;14.80;99.90;;;;;;4191941;28;20040;-71
2021/05/13 07:16:28;;;;;;;14.48;11.15;;;14.90;99.90;;;;;;4191625;28;20408;-72
2021/05/13 07:18:29;;;;;;;17.08;13.43;;;14.90;99.90;;;;;;4193970;28;20558;-72
2021/05/13 07:20:30;;;;;;;14.43;10.98;;;15.00;99.90;;;;;;4188270;28;20103;-72
2021/05/13 07:22:31;;;;;;;18.20;12.27;;;15.00;99.90;;;;;;4192039;28;20519;-72
2021/05/13 07:24:32;;;;;;;15.73;11.98;;;15.00;99.90;;;;;;4194851;28;20275;-72
2021/05/13 07:26:33;;;;;;;16.05;11.95;;;15.10;99.90;;;;;;4192740;28;20037;-72
2021/05/13 07:28:34;;;;;;;17.38;11.73;;;15.10;99.90;;;;;;4192109;28;20051;-72
2021/05/13 07:30:35;;;;;;;16.38;12.70;;;15.10;99.90;;;;;;4179976;28;20032;-72
2021/05/13 07:32:35;;;;;;;19.58;12.98;;;15.10;99.90;;;;;;4188418;28;20076;-72
2021/05/13 07:34:36;;;;;;;13.48;11.63;;;15.10;99.90;;;;;;4189109;28;20086;-71
2021/05/13 07:36:37;;;;;;;14.95;10.77;;;15.10;99.90;;;;;;4187944;28;20054;-71
2021/05/13 07:38:38;;;;;;;14.80;11.43;;;15.10;99.90;;;;;;4192873;28;20388;-72
2021/05/13 07:40:39;;;;;;;18.98;12.50;;;15.20;99.90;;;;;;4192864;28;20086;-71
2021/05/13 07:42:40;;;;;;;15.15;11.25;;;15.20;99.90;;;;;;4192595;28;20357;-72
2021/05/13 07:44:40;;;;;;;14.65;11.32;;;15.20;99.90;;;;;;4189105;28;20048;-72
2021/05/13 07:46:42;;;;;;;14.82;10.85;;;15.30;99.90;;;;;;4188794;28;20052;-72
2021/05/13 07:48:43;;;;;;;16.60;12.48;;;15.30;99.90;;;;;;4188538;28;20033;-72
2021/05/13 07:50:45;;;;;;;13.48;11.57;;;15.40;99.90;;;;;;4185357;28;20033;-72
2021/05/13 07:52:46;;;;;;;15.73;10.88;;;15.40;99.90;;;;;;4187374;28;20440;-72
2021/05/13 07:54:47;;;;;;;18.13;11.23;;;15.50;99.90;;;;;;4188781;28;20043;-72
2021/05/13 07:56:47;;;;;;;16.45;12.95;;;15.50;99.90;;;;;;4191293;28;20025;-72
2021/05/13 07:58:48;;;;;;;13.40;10.00;;;15.60;99.90;;;;;;4187769;28;20139;-72
2021/05/13 08:00:49;;;;;;;15.00;10.50;;;15.70;99.90;;;;;;4193237;28;20485;-72
2021/05/13 08:02:50;;;;;;;14.27;10.20;;;15.70;99.90;;;;;;4189197;28;20547;-72
2021/05/13 08:04:50;;;;;;;17.13;11.73;;;15.70;99.90;;;;;;4192377;28;20055;-72
2021/05/13 08:06:51;;;;;;;13.52;10.50;;;15.80;99.90;;;;;;4196556;28;20119;-72
2021/05/13 08:08:52;;;;;;;15.77;11.07;;;15.80;99.90;;;;;;4185430;28;20036;-72
2021/05/13 08:10:52;;;;;;;16.35;10.93;;;15.80;99.90;;;;;;4192643;28;20381;-72
2021/05/13 08:12:53;;;;;;;13.55;9.10;;;15.90;99.90;;;;;;4191399;28;20055;-72
2021/05/13 08:14:53;;;;;;;9.23;7.20;;;15.90;99.90;;;;;;4168956;28;20061;-72
2021/05/13 08:16:54;;;;;;;10.27;8.07;;;16.00;99.90;;;;;;4194541;28;20028;-72
2021/05/13 08:18:54;;;;;;;11.20;8.35;;;16.00;99.90;;;;;;4187354;28;20028;-72
2021/05/13 08:20:55;;;;;;;11.95;9.25;;;16.10;99.90;;;;;;4193224;28;20475;-72
2021/05/13 08:22:56;;;;;;;11.68;9.27;;;16.20;99.90;;;;;;4186067;28;20419;-72
2021/05/13 08:24:57;;;;;;;10.55;8.20;;;16.20;99.90;;;;;;4188472;28;20135;-72
2021/05/13 08:27:01;;;;;;;9.48;7.78;;;16.30;99.90;;;;;;4190056;28;20101;-72
2021/05/13 08:29:01;;;;;;;11.55;7.85;;;16.40;99.90;;;;;;4188500;28;20090;-72
2021/05/13 08:31:02;;;;;;;10.82;7.45;;;16.50;99.90;;;;;;4187415;28;20040;-72
2021/05/13 08:33:04;;;;;;;9.80;7.53;;;16.50;99.90;;;;;;4189171;28;20033;-72
2021/05/13 08:35:05;;;;;;;9.88;7.35;;;16.60;99.90;;;;;;4197144;28;20550;-72
2021/05/13 08:37:05;;;;;;;9.77;7.95;;;16.70;99.90;;;;;;4190087;28;20048;-72
2021/05/13 08:39:06;;;;;;;11.02;8.43;;;16.80;99.90;;;;;;4193344;28;20037;-72
2021/05/13 08:41:06;;;;;;;8.30;6.55;;;16.90;99.90;;;;;;4190774;28;20237;-73
2021/05/13 08:43:24;;;;;;;7.68;6.20;;;17.00;99.90;;;;;;4191605;28;20111;-72
2021/05/13 08:45:32;;;;;;;8.93;6.35;;;17.10;99.90;;;;;;4185129;28;20265;-72
2021/05/13 08:47:37;;;;;;;5.78;5.13;;;17.20;99.90;;;;;;4184633;28;20033;-72
2021/05/13 08:49:39;;;;;;;9.43;6.63;;;17.30;99.90;;;;;;4189121;28;20052;-72
2021/05/13 08:51:40;;;;;;;9.10;6.47;;;17.40;99.90;;;;;;4183577;28;20477;-72
2021/05/13 08:53:57;;;;;;;8.35;5.82;;;17.40;99.90;;;;;;4193927;28;20056;-73
2021/05/13 08:55:58;;;;;;;7.75;4.82;;;17.50;99.90;;;;;;4190221;28;20029;-70
2021/05/13 08:57:58;;;;;;;7.82;4.90;;;17.60;99.90;;;;;;4191156;28;20024;-70
2021/05/13 09:00:00;;;;;;;8.25;5.93;;;17.70;99.90;;;;;;4189001;28;20107;-72
2021/05/13 09:02:00;;;;;;;6.50;4.78;;;17.80;99.90;;;;;;4185172;28;20033;-72
2021/05/13 09:04:02;;;;;;;4.95;4.22;;;17.90;99.90;;;;;;4195557;28;20452;-72
2021/05/13 09:06:04;;;;;;;5.72;4.57;;;18.00;99.90;;;;;;4185018;28;20116;-72
2021/05/13 09:08:05;;;;;;;5.32;4.00;;;18.10;99.90;;;;;;4186102;28;20409;-72
2021/05/13 09:10:11;;;;;;;4.72;3.80;;;18.10;99.90;;;;;;4187098;28;20112;-72
2021/05/13 09:12:11;;;;;;;3.97;3.10;;;18.30;99.90;;;;;;4190651;28;20032;-72
2021/05/13 09:14:12;;;;;;;6.40;3.53;;;18.40;99.90;;;;;;4188934;28;20089;-72
2021/05/13 09:16:35;;;;;;;3.85;3.15;;;18.50;99.90;;;;;;4191308;28;20088;-70
2021/05/13 09:18:36;;;;;;;5.32;3.47;;;18.60;99.90;;;;;;4187992;28;20059;-72
2021/05/13 09:20:39;;;;;;;4.13;3.72;;;18.70;99.90;;;;;;4188764;28;20032;-72
2021/05/13 09:22:40;;;;;;;5.28;3.55;;;18.70;99.90;;;;;;4177872;28;20086;-72
2021/05/13 09:24:43;;;;;;;5.57;3.63;;;18.80;99.90;;;;;;4189074;28;20127;-72
2021/05/13 09:26:44;;;;;;;2.90;2.58;;;18.90;99.90;;;;;;4193078;28;20046;-72
2021/05/13 09:28:49;;;;;;;4.40;2.95;;;19.00;99.90;;;;;;4191983;28;20048;-72
2021/05/13 09:30:50;;;;;;;4.32;2.53;;;19.00;99.90;;;;;;4190914;28;20054;-72
2021/05/13 09:33:01;;;;;;;6.68;2.85;;;19.20;99.90;;;;;;4189699;28;20044;-72
2021/05/13 09:35:14;;;;;;;3.72;2.10;;;19.20;99.90;;;;;;4187881;28;20036;-72
2021/05/13 09:37:14;;;;;;;3.80;2.30;;;19.30;99.70;;;;;;4187954;28;20037;-72
2021/05/13 09:39:25;;;;;;;3.20;2.00;;;19.50;98.60;;;;;;4193704;28;20077;-72
2021/05/13 09:41:31;;;;;;;2.80;1.80;;;19.50;99.60;;;;;;4184776;28;20488;-72
2021/05/13 09:43:32;;;;;;;5.15;2.25;;;19.60;94.10;;;;;;4191243;28;20477;-72
2021/05/13 09:45:52;;;;;;;5.50;2.22;;;19.70;94.10;;;;;;4189602;28;20050;-72
2021/05/13 09:47:52;;;;;;;5.15;2.30;;;19.80;93.50;;;;;;4189819;28;20036;-72
2021/05/13 09:50:21;;;;;;;4.68;2.35;;;19.80;93.50;;;;;;4189923;28;20059;-72
2021/05/13 09:52:39;;;;;;;8.75;2.47;;;19.90;91.70;;;;;;4191352;28;20032;-72
2021/05/13 09:54:40;;;;;;;3.42;2.10;;;20.00;91.20;;;;;;4171188;28;20131;-72
2021/05/13 09:56:49;;;;;;;5.15;2.22;;;20.00;90.70;;;;;;4180342;28;20036;-72
2021/05/13 09:58:50;;;;;;;3.85;2.22;;;20.10;91.40;;;;;;4193397;28;20066;-72
2021/05/13 10:00:50;;;;;;;4.20;2.30;;;20.20;91.40;;;;;;4191604;28;20540;-72
2021/05/13 10:02:51;;;;;;;5.10;2.97;;;20.30;94.00;;;;;;4193639;28;20036;-73
2021/05/13 10:04:52;;;;;;;6.38;3.22;;;20.40;94.90;;;;;;4182383;28;20055;-72
2021/05/13 10:06:53;;;;;;;6.82;2.88;;;20.50;93.30;;;;;;4192162;28;20408;-70
2021/05/13 10:08:53;;;;;;;3.53;2.42;;;20.50;93.80;;;;;;4185122;28;20031;-70
2021/05/13 10:10:55;;;;;;;5.75;2.70;;;20.50;90.30;;;;;;4193636;27;20468;-70
2021/05/13 10:12:57;;;;;;;4.18;2.97;;;20.60;93.80;;;;;;4190520;28;20037;-70
2021/05/13 10:14:59;;;;;;;5.30;2.42;;;20.70;93.80;;;;;;4190762;28;20041;-70
2021/05/13 10:17:03;;;;;;;3.65;2.50;;;20.70;91.90;;;;;;4189698;28;20365;-70
2021/05/13 10:19:17;;;;;;;5.03;2.92;;;20.70;91.80;;;;;;4189332;28;20043;-70
2021/05/13 10:21:24;;;;;;;4.70;2.78;;;20.80;91.20;;;;;;4185704;28;20123;-71
2021/05/13 10:23:26;;;;;;;8.00;3.22;;;20.80;91.90;;;;;;4186192;28;21151;-71
2021/05/13 10:25:29;;;;;;;4.55;2.10;;;20.80;93.20;;;;;;4184293;28;20028;-70
2021/05/13 10:27:30;;;;;;;3.85;2.28;;;20.80;90.80;;;;;;4187411;28;20089;-70
2021/05/13 10:29:31;;;;;;;5.15;2.38;;;20.90;87.10;;;;;;4188944;28;20365;-70
2021/05/13 10:31:36;;;;;;;4.15;2.20;;;20.90;87.30;;;;;;4192667;28;20082;-70
2021/05/13 10:33:48;;;;;;;4.00;2.22;;;20.90;83.90;;;;;;4185082;28;20442;-70
2021/05/13 10:36:04;;;;;;;2.97;2.00;;;20.90;89.60;;;;;;4181946;28;20503;-70
2021/05/13 10:38:13;;;;;;;5.90;2.53;;;20.90;88.50;;;;;;4186809;28;20433;-71